sensor_id;sensor_type;location;lat;lon;timestamp;P1;durP1;ratioP1;P2;durP2;ratioP2
21091;SDS011;10704;42.678;23.288;2023-12-29T00:00:00;50.17;;;26.60;;
21091;SDS011;10704;42.678;23.288;2023-12-29T00:02:26;45.58;;;24.17;;
21091;SDS011;10704;42.678;23.288;2023-12-29T00:04:52;42.30;;;20.80;;
21091;SDS011;10704;42.678;23.288;2023-12-29T00:07:18;37.88;;;18.23;;
21091;SDS011;10704;42.678;23.288;2023-12-29T00:09:44;37.25;;;18.55;;
21091;SDS011;10704;42.678;23.288;2023-12-29T00:12:09;35.53;;;17.00;;
21091;SDS011;10704;42.678;23.288;2023-12-29T00:14:39;33.45;;;17.55;;
21091;SDS011;10704;42.678;23.288;2023-12-29T00:17:05;30.25;;;16.20;;
21091;SDS011;10704;42.678;23.288;2023-12-29T00:19:31;29.23;;;16.27;;
21091;SDS011;10704;42.678;23.288;2023-12-29T00:21:57;36.22;;;17.90;;
21091;SDS011;10704;42.678;23.288;2023-12-29T00:24:25;34.70;;;17.25;;
21091;SDS011;10704;42.678;23.288;2023-12-29T00:26:51;33.00;;;17.33;;
21091;SDS011;10704;42.678;23.288;2023-12-29T00:29:17;41.10;;;19.75;;
21091;SDS011;10704;42.678;23.288;2023-12-29T00:31:43;48.25;;;25.23;;
21091;SDS011;10704;42.678;23.288;2023-12-29T00:34:09;48.47;;;24.95;;
21091;SDS011;10704;42.678;23.288;2023-12-29T00:36:35;44.35;;;22.42;;
21091;SDS011;10704;42.678;23.288;2023-12-29T00:39:01;49.10;;;22.65;;
21091;SDS011;10704;42.678;23.288;2023-12-29T00:41:27;49.78;;;23.63;;
21091;SDS011;10704;42.678;23.288;2023-12-29T00:43:53;45.90;;;24.00;;
21091;SDS011;10704;42.678;23.288;2023-12-29T00:46:19;41.60;;;22.27;;
21091;SDS011;10704;42.678;23.288;2023-12-29T00:48:45;44.92;;;23.67;;
21091;SDS011;10704;42.678;23.288;2023-12-29T00:51:12;49.00;;;22.48;;
21091;SDS011;10704;42.678;23.288;2023-12-29T00:53:38;49.97;;;23.48;;
21091;SDS011;10704;42.678;23.288;2023-12-29T00:56:09;52.13;;;27.42;;
21091;SDS011;10704;42.678;23.288;2023-12-29T00:58:36;55.78;;;27.67;;
21091;SDS011;10704;42.678;23.288;2023-12-29T01:01:02;55.08;;;28.23;;
21091;SDS011;10704;42.678;23.288;2023-12-29T01:03:28;53.15;;;27.55;;
21091;SDS011;10704;42.678;23.288;2023-12-29T01:05:54;52.70;;;27.98;;
21091;SDS011;10704;42.678;23.288;2023-12-29T01:08:20;43.67;;;26.05;;
21091;SDS011;10704;42.678;23.288;2023-12-29T01:10:46;50.58;;;25.40;;
21091;SDS011;10704;42.678;23.288;2023-12-29T01:13:12;57.55;;;28.85;;
21091;SDS011;10704;42.678;23.288;2023-12-29T01:15:38;51.58;;;28.10;;
21091;SDS011;10704;42.678;23.288;2023-12-29T01:18:06;59.92;;;29.45;;
21091;SDS011;10704;42.678;23.288;2023-12-29T01:20:33;51.95;;;29.05;;
21091;SDS011;10704;42.678;23.288;2023-12-29T01:22:58;57.00;;;26.88;;
21091;SDS011;10704;42.678;23.288;2023-12-29T01:25:24;54.75;;;29.17;;
21091;SDS011;10704;42.678;23.288;2023-12-29T01:27:50;55.42;;;29.63;;
21091;SDS011;10704;42.678;23.288;2023-12-29T01:30:16;60.47;;;32.05;;
21091;SDS011;10704;42.678;23.288;2023-12-29T01:32:42;76.90;;;39.97;;
21091;SDS011;10704;42.678;23.288;2023-12-29T01:35:08;69.88;;;38.58;;
21091;SDS011;10704;42.678;23.288;2023-12-29T01:37:34;78.90;;;41.47;;
21091;SDS011;10704;42.678;23.288;2023-12-29T01:40:00;90.22;;;45.80;;
21091;SDS011;10704;42.678;23.288;2023-12-29T01:42:26;99.30;;;50.78;;
21091;SDS011;10704;42.678;23.288;2023-12-29T01:44:52;96.00;;;51.65;;
21091;SDS011;10704;42.678;23.288;2023-12-29T01:47:19;96.18;;;48.60;;
21091;SDS011;10704;42.678;23.288;2023-12-29T01:49:47;96.70;;;50.10;;
21091;SDS011;10704;42.678;23.288;2023-12-29T01:52:15;98.18;;;49.75;;
21091;SDS011;10704;42.678;23.288;2023-12-29T01:54:44;107.15;;;54.05;;
21091;SDS011;10704;42.678;23.288;2023-12-29T01:57:12;104.95;;;53.75;;
21091;SDS011;10704;42.678;23.288;2023-12-29T01:59:39;95.93;;;51.70;;
21091;SDS011;10704;42.678;23.288;2023-12-29T02:02:06;92.93;;;48.75;;
21091;SDS011;10704;42.678;23.288;2023-12-29T02:04:31;94.63;;;48.95;;
21091;SDS011;10704;42.678;23.288;2023-12-29T02:06:58;87.43;;;48.30;;
21091;SDS011;10704;42.678;23.288;2023-12-29T02:09:24;92.00;;;49.78;;
21091;SDS011;10704;42.678;23.288;2023-12-29T02:11:50;89.85;;;46.67;;
21091;SDS011;10704;42.678;23.288;2023-12-29T02:14:17;91.65;;;46.05;;
21091;SDS011;10704;42.678;23.288;2023-12-29T02:19:20;92.65;;;44.97;;
21091;SDS011;10704;42.678;23.288;2023-12-29T02:21:49;95.13;;;46.53;;
21091;SDS011;10704;42.678;23.288;2023-12-29T02:24:15;118.85;;;50.95;;
21091;SDS011;10704;42.678;23.288;2023-12-29T02:26:42;104.55;;;46.60;;
21091;SDS011;10704;42.678;23.288;2023-12-29T02:29:16;97.70;;;45.65;;
21091;SDS011;10704;42.678;23.288;2023-12-29T02:31:47;80.18;;;36.90;;
21091;SDS011;10704;42.678;23.288;2023-12-29T02:34:18;89.80;;;42.05;;
21091;SDS011;10704;42.678;23.288;2023-12-29T02:36:46;68.57;;;36.53;;
21091;SDS011;10704;42.678;23.288;2023-12-29T02:39:13;69.22;;;36.05;;
21091;SDS011;10704;42.678;23.288;2023-12-29T02:41:40;73.10;;;34.80;;
21091;SDS011;10704;42.678;23.288;2023-12-29T02:44:06;58.13;;;31.63;;
21091;SDS011;10704;42.678;23.288;2023-12-29T02:46:31;70.88;;;36.28;;
21091;SDS011;10704;42.678;23.288;2023-12-29T02:48:57;70.85;;;35.53;;
21091;SDS011;10704;42.678;23.288;2023-12-29T02:51:24;66.40;;;35.72;;
21091;SDS011;10704;42.678;23.288;2023-12-29T02:53:50;55.42;;;28.75;;
21091;SDS011;10704;42.678;23.288;2023-12-29T02:56:16;55.47;;;28.63;;
21091;SDS011;10704;42.678;23.288;2023-12-29T02:58:42;65.93;;;30.95;;
21091;SDS011;10704;42.678;23.288;2023-12-29T03:01:08;60.92;;;31.58;;
21091;SDS011;10704;42.678;23.288;2023-12-29T03:03:34;63.40;;;33.05;;
21091;SDS011;10704;42.678;23.288;2023-12-29T03:06:00;74.05;;;39.08;;
21091;SDS011;10704;42.678;23.288;2023-12-29T03:08:25;83.30;;;44.13;;
21091;SDS011;10704;42.678;23.288;2023-12-29T03:10:51;93.38;;;46.88;;
21091;SDS011;10704;42.678;23.288;2023-12-29T03:13:17;95.82;;;48.72;;
21091;SDS011;10704;42.678;23.288;2023-12-29T03:15:43;99.32;;;50.42;;
21091;SDS011;10704;42.678;23.288;2023-12-29T03:18:10;103.07;;;55.05;;
21091;SDS011;10704;42.678;23.288;2023-12-29T03:20:36;109.05;;;56.70;;
21091;SDS011;10704;42.678;23.288;2023-12-29T03:23:02;96.50;;;51.85;;
21091;SDS011;10704;42.678;23.288;2023-12-29T03:25:28;99.10;;;52.10;;
21091;SDS011;10704;42.678;23.288;2023-12-29T03:27:53;92.80;;;49.55;;
21091;SDS011;10704;42.678;23.288;2023-12-29T03:30:20;95.72;;;50.70;;
21091;SDS011;10704;42.678;23.288;2023-12-29T03:32:46;94.78;;;49.65;;
21091;SDS011;10704;42.678;23.288;2023-12-29T03:35:12;111.05;;;53.45;;
21091;SDS011;10704;42.678;23.288;2023-12-29T03:37:38;94.53;;;50.85;;
21091;SDS011;10704;42.678;23.288;2023-12-29T03:40:06;94.63;;;48.30;;
21091;SDS011;10704;42.678;23.288;2023-12-29T03:42:32;85.97;;;43.50;;
21091;SDS011;10704;42.678;23.288;2023-12-29T03:45:00;82.68;;;43.35;;
21091;SDS011;10704;42.678;23.288;2023-12-29T03:47:26;85.63;;;45.88;;
21091;SDS011;10704;42.678;23.288;2023-12-29T03:49:53;90.05;;;49.03;;
21091;SDS011;10704;42.678;23.288;2023-12-29T03:52:19;94.57;;;49.80;;
21091;SDS011;10704;42.678;23.288;2023-12-29T03:54:45;87.65;;;46.15;;
21091;SDS011;10704;42.678;23.288;2023-12-29T03:57:11;91.47;;;48.00;;
21091;SDS011;10704;42.678;23.288;2023-12-29T03:59:37;92.88;;;48.30;;
21091;SDS011;10704;42.678;23.288;2023-12-29T04:02:03;88.45;;;47.42;;
21091;SDS011;10704;42.678;23.288;2023-12-29T04:04:29;90.65;;;45.85;;
21091;SDS011;10704;42.678;23.288;2023-12-29T04:06:55;86.32;;;44.92;;
21091;SDS011;10704;42.678;23.288;2023-12-29T04:09:21;93.40;;;46.08;;
21091;SDS011;10704;42.678;23.288;2023-12-29T04:11:47;95.40;;;47.45;;
21091;SDS011;10704;42.678;23.288;2023-12-29T04:14:13;87.00;;;44.35;;
21091;SDS011;10704;42.678;23.288;2023-12-29T04:16:39;91.25;;;46.58;;
21091;SDS011;10704;42.678;23.288;2023-12-29T04:19:05;87.68;;;45.63;;
21091;SDS011;10704;42.678;23.288;2023-12-29T04:21:30;87.95;;;44.90;;
21091;SDS011;10704;42.678;23.288;2023-12-29T04:23:56;94.13;;;46.80;;
21091;SDS011;10704;42.678;23.288;2023-12-29T04:26:22;91.90;;;45.10;;
21091;SDS011;10704;42.678;23.288;2023-12-29T04:28:48;86.63;;;44.03;;
21091;SDS011;10704;42.678;23.288;2023-12-29T04:31:14;80.97;;;42.45;;
21091;SDS011;10704;42.678;23.288;2023-12-29T04:33:40;90.72;;;43.35;;
21091;SDS011;10704;42.678;23.288;2023-12-29T04:36:06;86.32;;;44.60;;
21091;SDS011;10704;42.678;23.288;2023-12-29T04:38:32;80.63;;;44.28;;
21091;SDS011;10704;42.678;23.288;2023-12-29T04:40:58;84.50;;;44.42;;
21091;SDS011;10704;42.678;23.288;2023-12-29T04:43:24;92.40;;;46.22;;
21091;SDS011;10704;42.678;23.288;2023-12-29T04:45:50;86.20;;;46.05;;
21091;SDS011;10704;42.678;23.288;2023-12-29T04:48:16;90.82;;;46.75;;
21091;SDS011;10704;42.678;23.288;2023-12-29T04:50:42;93.97;;;46.78;;
21091;SDS011;10704;42.678;23.288;2023-12-29T04:53:08;94.65;;;49.25;;
21091;SDS011;10704;42.678;23.288;2023-12-29T04:55:34;87.47;;;47.97;;
21091;SDS011;10704;42.678;23.288;2023-12-29T04:58:00;94.55;;;49.03;;
21091;SDS011;10704;42.678;23.288;2023-12-29T05:00:26;97.65;;;51.25;;
21091;SDS011;10704;42.678;23.288;2023-12-29T05:02:52;95.10;;;46.92;;
21091;SDS011;10704;42.678;23.288;2023-12-29T05:05:18;103.00;;;49.72;;
21091;SDS011;10704;42.678;23.288;2023-12-29T05:07:43;92.57;;;47.00;;
21091;SDS011;10704;42.678;23.288;2023-12-29T05:10:09;85.93;;;45.58;;
21091;SDS011;10704;42.678;23.288;2023-12-29T05:12:35;80.55;;;44.00;;
21091;SDS011;10704;42.678;23.288;2023-12-29T05:15:01;86.53;;;46.95;;
21091;SDS011;10704;42.678;23.288;2023-12-29T05:17:27;85.45;;;44.83;;
21091;SDS011;10704;42.678;23.288;2023-12-29T05:19:53;83.05;;;43.53;;
21091;SDS011;10704;42.678;23.288;2023-12-29T05:22:19;82.53;;;41.40;;
21091;SDS011;10704;42.678;23.288;2023-12-29T05:24:45;87.55;;;44.38;;
21091;SDS011;10704;42.678;23.288;2023-12-29T05:27:11;88.55;;;47.20;;
21091;SDS011;10704;42.678;23.288;2023-12-29T05:29:37;87.25;;;45.58;;
21091;SDS011;10704;42.678;23.288;2023-12-29T05:32:04;82.28;;;46.22;;
21091;SDS011;10704;42.678;23.288;2023-12-29T05:34:31;88.38;;;47.25;;
21091;SDS011;10704;42.678;23.288;2023-12-29T05:36:57;97.15;;;48.97;;
21091;SDS011;10704;42.678;23.288;2023-12-29T05:39:23;103.32;;;49.80;;
21091;SDS011;10704;42.678;23.288;2023-12-29T05:41:49;88.55;;;50.15;;
21091;SDS011;10704;42.678;23.288;2023-12-29T05:44:15;96.28;;;48.50;;
21091;SDS011;10704;42.678;23.288;2023-12-29T05:46:45;88.60;;;48.80;;
21091;SDS011;10704;42.678;23.288;2023-12-29T05:49:11;95.32;;;50.22;;
21091;SDS011;10704;42.678;23.288;2023-12-29T05:51:37;96.40;;;47.97;;
21091;SDS011;10704;42.678;23.288;2023-12-29T05:54:03;99.35;;;49.40;;
21091;SDS011;10704;42.678;23.288;2023-12-29T05:56:29;90.28;;;46.55;;
21091;SDS011;10704;42.678;23.288;2023-12-29T05:58:55;95.32;;;47.15;;
21091;SDS011;10704;42.678;23.288;2023-12-29T06:01:21;98.80;;;49.03;;
21091;SDS011;10704;42.678;23.288;2023-12-29T06:03:47;92.05;;;50.17;;
21091;SDS011;10704;42.678;23.288;2023-12-29T06:06:13;103.00;;;51.53;;
21091;SDS011;10704;42.678;23.288;2023-12-29T06:08:39;92.72;;;49.20;;
21091;SDS011;10704;42.678;23.288;2023-12-29T06:11:05;107.70;;;51.53;;
21091;SDS011;10704;42.678;23.288;2023-12-29T06:13:31;103.90;;;51.85;;
21091;SDS011;10704;42.678;23.288;2023-12-29T06:15:57;102.72;;;52.70;;
21091;SDS011;10704;42.678;23.288;2023-12-29T06:18:24;102.82;;;51.33;;
21091;SDS011;10704;42.678;23.288;2023-12-29T06:20:50;97.47;;;51.15;;
21091;SDS011;10704;42.678;23.288;2023-12-29T06:23:16;96.00;;;50.42;;
21091;SDS011;10704;42.678;23.288;2023-12-29T06:25:42;98.88;;;49.85;;
21091;SDS011;10704;42.678;23.288;2023-12-29T06:28:08;94.40;;;49.28;;
21091;SDS011;10704;42.678;23.288;2023-12-29T06:30:34;92.10;;;48.95;;
21091;SDS011;10704;42.678;23.288;2023-12-29T06:33:00;99.93;;;50.47;;
21091;SDS011;10704;42.678;23.288;2023-12-29T06:35:26;87.25;;;49.22;;
21091;SDS011;10704;42.678;23.288;2023-12-29T06:37:52;94.28;;;48.42;;
21091;SDS011;10704;42.678;23.288;2023-12-29T06:40:18;92.28;;;46.88;;
21091;SDS011;10704;42.678;23.288;2023-12-29T06:42:44;108.22;;;53.25;;
21091;SDS011;10704;42.678;23.288;2023-12-29T06:45:10;97.10;;;52.17;;
21091;SDS011;10704;42.678;23.288;2023-12-29T06:47:36;93.45;;;50.88;;
21091;SDS011;10704;42.678;23.288;2023-12-29T06:50:02;101.57;;;54.50;;
21091;SDS011;10704;42.678;23.288;2023-12-29T06:52:28;115.47;;;55.05;;
21091;SDS011;10704;42.678;23.288;2023-12-29T06:54:59;100.50;;;54.63;;
21091;SDS011;10704;42.678;23.288;2023-12-29T06:57:26;102.88;;;54.72;;
21091;SDS011;10704;42.678;23.288;2023-12-29T06:59:52;102.78;;;54.97;;
21091;SDS011;10704;42.678;23.288;2023-12-29T07:02:18;102.63;;;54.35;;
21091;SDS011;10704;42.678;23.288;2023-12-29T07:04:44;107.78;;;55.58;;
21091;SDS011;10704;42.678;23.288;2023-12-29T07:07:10;104.13;;;54.30;;
21091;SDS011;10704;42.678;23.288;2023-12-29T07:09:39;99.65;;;52.45;;
21091;SDS011;10704;42.678;23.288;2023-12-29T07:12:06;99.43;;;52.95;;
21091;SDS011;10704;42.678;23.288;2023-12-29T07:14:32;100.97;;;53.40;;
21091;SDS011;10704;42.678;23.288;2023-12-29T07:16:58;102.20;;;52.45;;
21091;SDS011;10704;42.678;23.288;2023-12-29T07:19:24;100.50;;;51.13;;
21091;SDS011;10704;42.678;23.288;2023-12-29T07:21:50;106.95;;;52.35;;
21091;SDS011;10704;42.678;23.288;2023-12-29T07:24:15;96.75;;;50.95;;
21091;SDS011;10704;42.678;23.288;2023-12-29T07:26:42;101.03;;;51.58;;
21091;SDS011;10704;42.678;23.288;2023-12-29T07:29:08;103.07;;;52.88;;
21091;SDS011;10704;42.678;23.288;2023-12-29T07:31:37;103.88;;;51.38;;
21091;SDS011;10704;42.678;23.288;2023-12-29T07:34:04;96.07;;;51.33;;
21091;SDS011;10704;42.678;23.288;2023-12-29T07:36:30;92.15;;;49.80;;
21091;SDS011;10704;42.678;23.288;2023-12-29T07:38:56;103.95;;;53.05;;
21091;SDS011;10704;42.678;23.288;2023-12-29T07:41:22;95.97;;;50.88;;
21091;SDS011;10704;42.678;23.288;2023-12-29T07:43:48;92.10;;;49.35;;
21091;SDS011;10704;42.678;23.288;2023-12-29T07:46:23;92.22;;;48.97;;
21091;SDS011;10704;42.678;23.288;2023-12-29T07:48:50;93.70;;;50.50;;
21091;SDS011;10704;42.678;23.288;2023-12-29T07:51:16;100.47;;;50.72;;
21091;SDS011;10704;42.678;23.288;2023-12-29T07:53:42;91.10;;;48.67;;
21091;SDS011;10704;42.678;23.288;2023-12-29T07:56:09;89.72;;;46.55;;
21091;SDS011;10704;42.678;23.288;2023-12-29T07:58:36;103.75;;;55.08;;
21091;SDS011;10704;42.678;23.288;2023-12-29T08:01:02;97.50;;;55.20;;
21091;SDS011;10704;42.678;23.288;2023-12-29T08:03:28;107.72;;;54.33;;
21091;SDS011;10704;42.678;23.288;2023-12-29T08:05:54;94.78;;;55.30;;
21091;SDS011;10704;42.678;23.288;2023-12-29T08:08:20;96.80;;;53.60;;
21091;SDS011;10704;42.678;23.288;2023-12-29T08:10:48;94.55;;;53.10;;
21091;SDS011;10704;42.678;23.288;2023-12-29T08:13:14;95.80;;;52.08;;
21091;SDS011;10704;42.678;23.288;2023-12-29T08:15:41;106.43;;;52.85;;
21091;SDS011;10704;42.678;23.288;2023-12-29T08:18:08;90.75;;;48.03;;
21091;SDS011;10704;42.678;23.288;2023-12-29T08:20:34;85.50;;;50.55;;
21091;SDS011;10704;42.678;23.288;2023-12-29T08:23:01;83.75;;;49.70;;
21091;SDS011;10704;42.678;23.288;2023-12-29T08:25:28;81.53;;;47.58;;
21091;SDS011;10704;42.678;23.288;2023-12-29T08:27:55;79.78;;;45.17;;
21091;SDS011;10704;42.678;23.288;2023-12-29T08:30:21;80.28;;;47.10;;
21091;SDS011;10704;42.678;23.288;2023-12-29T08:32:47;82.38;;;47.90;;
21091;SDS011;10704;42.678;23.288;2023-12-29T08:35:13;82.90;;;49.50;;
21091;SDS011;10704;42.678;23.288;2023-12-29T08:37:40;89.80;;;49.15;;
21091;SDS011;10704;42.678;23.288;2023-12-29T08:40:06;87.47;;;49.80;;
21091;SDS011;10704;42.678;23.288;2023-12-29T08:42:33;85.82;;;49.55;;
21091;SDS011;10704;42.678;23.288;2023-12-29T08:44:59;91.85;;;49.20;;
21091;SDS011;10704;42.678;23.288;2023-12-29T08:47:25;79.60;;;46.95;;
21091;SDS011;10704;42.678;23.288;2023-12-29T08:49:51;81.18;;;49.00;;
21091;SDS011;10704;42.678;23.288;2023-12-29T08:52:19;85.18;;;47.58;;
21091;SDS011;10704;42.678;23.288;2023-12-29T08:54:46;83.25;;;48.03;;
21091;SDS011;10704;42.678;23.288;2023-12-29T08:57:12;85.47;;;48.45;;
21091;SDS011;10704;42.678;23.288;2023-12-29T08:59:38;86.68;;;50.47;;
21091;SDS011;10704;42.678;23.288;2023-12-29T09:02:04;84.70;;;50.58;;
21091;SDS011;10704;42.678;23.288;2023-12-29T09:04:30;87.00;;;50.17;;
21091;SDS011;10704;42.678;23.288;2023-12-29T09:06:56;76.32;;;46.45;;
21091;SDS011;10704;42.678;23.288;2023-12-29T09:09:22;66.93;;;42.80;;
21091;SDS011;10704;42.678;23.288;2023-12-29T09:11:48;69.93;;;43.03;;
21091;SDS011;10704;42.678;23.288;2023-12-29T09:14:14;74.72;;;43.65;;
21091;SDS011;10704;42.678;23.288;2023-12-29T09:16:40;71.03;;;44.08;;
21091;SDS011;10704;42.678;23.288;2023-12-29T09:21:53;72.80;;;44.20;;
21091;SDS011;10704;42.678;23.288;2023-12-29T09:24:19;68.07;;;39.60;;
21091;SDS011;10704;42.678;23.288;2023-12-29T09:26:45;55.80;;;35.78;;
21091;SDS011;10704;42.678;23.288;2023-12-29T09:29:11;69.88;;;41.67;;
21091;SDS011;10704;42.678;23.288;2023-12-29T09:31:36;71.15;;;41.63;;
21091;SDS011;10704;42.678;23.288;2023-12-29T09:34:02;71.18;;;41.58;;
21091;SDS011;10704;42.678;23.288;2023-12-29T09:36:29;57.30;;;37.67;;
21091;SDS011;10704;42.678;23.288;2023-12-29T09:38:55;58.05;;;37.72;;
21091;SDS011;10704;42.678;23.288;2023-12-29T09:41:22;65.72;;;40.78;;
21091;SDS011;10704;42.678;23.288;2023-12-29T09:43:50;61.38;;;38.00;;
21091;SDS011;10704;42.678;23.288;2023-12-29T09:46:17;63.20;;;37.35;;
21091;SDS011;10704;42.678;23.288;2023-12-29T09:48:47;60.63;;;36.83;;
21091;SDS011;10704;42.678;23.288;2023-12-29T09:51:14;63.25;;;38.72;;
21091;SDS011;10704;42.678;23.288;2023-12-29T09:53:41;64.40;;;40.30;;
21091;SDS011;10704;42.678;23.288;2023-12-29T09:56:08;64.18;;;41.53;;
21091;SDS011;10704;42.678;23.288;2023-12-29T09:58:34;66.70;;;41.85;;
21091;SDS011;10704;42.678;23.288;2023-12-29T10:01:03;68.57;;;42.45;;
21091;SDS011;10704;42.678;23.288;2023-12-29T10:03:31;71.05;;;43.25;;
21091;SDS011;10704;42.678;23.288;2023-12-29T10:05:59;66.22;;;41.95;;
21091;SDS011;10704;42.678;23.288;2023-12-29T10:08:28;65.40;;;40.95;;
21091;SDS011;10704;42.678;23.288;2023-12-29T10:10:57;66.38;;;39.55;;
21091;SDS011;10704;42.678;23.288;2023-12-29T10:13:26;63.58;;;37.85;;
21091;SDS011;10704;42.678;23.288;2023-12-29T10:19:37;62.88;;;39.00;;
21091;SDS011;10704;42.678;23.288;2023-12-29T10:24:29;58.13;;;37.15;;
21091;SDS011;10704;42.678;23.288;2023-12-29T10:26:55;58.10;;;35.67;;
21091;SDS011;10704;42.678;23.288;2023-12-29T10:29:21;55.40;;;35.95;;
21091;SDS011;10704;42.678;23.288;2023-12-29T10:31:47;55.30;;;35.72;;
21091;SDS011;10704;42.678;23.288;2023-12-29T10:34:17;63.33;;;38.20;;
21091;SDS011;10704;42.678;23.288;2023-12-29T10:36:48;58.58;;;36.80;;
21091;SDS011;10704;42.678;23.288;2023-12-29T10:39:15;52.92;;;36.28;;
21091;SDS011;10704;42.678;23.288;2023-12-29T10:41:41;55.38;;;36.03;;
21091;SDS011;10704;42.678;23.288;2023-12-29T10:44:07;58.13;;;37.63;;
21091;SDS011;10704;42.678;23.288;2023-12-29T10:46:34;55.42;;;35.40;;
21091;SDS011;10704;42.678;23.288;2023-12-29T10:49:09;55.95;;;33.60;;
21091;SDS011;10704;42.678;23.288;2023-12-29T10:51:35;59.03;;;35.15;;
21091;SDS011;10704;42.678;23.288;2023-12-29T10:54:02;51.63;;;33.95;;
21091;SDS011;10704;42.678;23.288;2023-12-29T10:56:32;55.67;;;34.70;;
21091;SDS011;10704;42.678;23.288;2023-12-29T10:59:02;54.08;;;33.55;;
21091;SDS011;10704;42.678;23.288;2023-12-29T11:01:30;56.22;;;34.90;;
21091;SDS011;10704;42.678;23.288;2023-12-29T11:04:15;50.88;;;35.95;;
21091;SDS011;10704;42.678;23.288;2023-12-29T11:06:49;51.17;;;33.95;;
21091;SDS011;10704;42.678;23.288;2023-12-29T11:09:32;56.50;;;35.78;;
21091;SDS011;10704;42.678;23.288;2023-12-29T11:12:02;65.97;;;41.63;;
21091;SDS011;10704;42.678;23.288;2023-12-29T11:14:32;73.38;;;44.72;;
21091;SDS011;10704;42.678;23.288;2023-12-29T11:16:59;71.60;;;44.92;;
21091;SDS011;10704;42.678;23.288;2023-12-29T11:19:26;74.20;;;48.00;;
21091;SDS011;10704;42.678;23.288;2023-12-29T11:21:54;67.35;;;46.42;;
21091;SDS011;10704;42.678;23.288;2023-12-29T11:24:21;68.70;;;46.97;;
21091;SDS011;10704;42.678;23.288;2023-12-29T11:26:48;77.03;;;49.60;;
21091;SDS011;10704;42.678;23.288;2023-12-29T11:29:15;75.72;;;49.08;;
21091;SDS011;10704;42.678;23.288;2023-12-29T11:31:42;71.13;;;48.08;;
21091;SDS011;10704;42.678;23.288;2023-12-29T11:34:33;72.95;;;47.92;;
21091;SDS011;10704;42.678;23.288;2023-12-29T11:40:20;81.15;;;49.63;;
21091;SDS011;10704;42.678;23.288;2023-12-29T11:43:02;84.05;;;50.45;;
21091;SDS011;10704;42.678;23.288;2023-12-29T11:45:35;81.22;;;51.30;;
21091;SDS011;10704;42.678;23.288;2023-12-29T11:48:03;78.80;;;50.25;;
21091;SDS011;10704;42.678;23.288;2023-12-29T11:50:34;78.32;;;49.58;;
21091;SDS011;10704;42.678;23.288;2023-12-29T11:53:03;76.18;;;48.33;;
21091;SDS011;10704;42.678;23.288;2023-12-29T11:55:30;70.40;;;46.80;;
21091;SDS011;10704;42.678;23.288;2023-12-29T11:58:00;75.15;;;44.67;;
21091;SDS011;10704;42.678;23.288;2023-12-29T12:00:40;70.10;;;48.30;;
21091;SDS011;10704;42.678;23.288;2023-12-29T12:03:40;75.55;;;46.55;;
21091;SDS011;10704;42.678;23.288;2023-12-29T12:06:00;70.85;;;46.85;;
21091;SDS011;10704;42.678;23.288;2023-12-29T12:13:57;68.43;;;46.42;;
21091;SDS011;10704;42.678;23.288;2023-12-29T12:19:17;68.78;;;43.22;;
21091;SDS011;10704;42.678;23.288;2023-12-29T12:21:47;69.80;;;41.03;;
21091;SDS011;10704;42.678;23.288;2023-12-29T12:24:19;64.30;;;40.10;;
21091;SDS011;10704;42.678;23.288;2023-12-29T12:26:45;73.30;;;41.40;;
21091;SDS011;10704;42.678;23.288;2023-12-29T12:29:12;67.88;;;42.05;;
21091;SDS011;10704;42.678;23.288;2023-12-29T12:31:55;64.10;;;38.65;;
21091;SDS011;10704;42.678;23.288;2023-12-29T12:34:22;55.42;;;34.95;;
21091;SDS011;10704;42.678;23.288;2023-12-29T12:36:48;52.78;;;32.05;;
21091;SDS011;10704;42.678;23.288;2023-12-29T12:39:15;53.70;;;28.67;;
21091;SDS011;10704;42.678;23.288;2023-12-29T12:41:41;44.22;;;26.92;;
21091;SDS011;10704;42.678;23.288;2023-12-29T12:46:34;47.42;;;30.73;;
21091;SDS011;10704;42.678;23.288;2023-12-29T12:49:01;50.47;;;30.08;;
21091;SDS011;10704;42.678;23.288;2023-12-29T12:51:29;44.97;;;28.77;;
21091;SDS011;10704;42.678;23.288;2023-12-29T12:53:55;47.88;;;27.85;;
21091;SDS011;10704;42.678;23.288;2023-12-29T12:56:21;46.35;;;28.15;;
21091;SDS011;10704;42.678;23.288;2023-12-29T12:58:47;48.08;;;27.20;;
21091;SDS011;10704;42.678;23.288;2023-12-29T13:01:13;44.28;;;26.77;;
21091;SDS011;10704;42.678;23.288;2023-12-29T13:03:39;36.60;;;22.55;;
21091;SDS011;10704;42.678;23.288;2023-12-29T13:06:06;41.75;;;24.55;;
21091;SDS011;10704;42.678;23.288;2023-12-29T13:08:32;37.15;;;20.65;;
21091;SDS011;10704;42.678;23.288;2023-12-29T13:10:59;32.28;;;17.10;;
21091;SDS011;10704;42.678;23.288;2023-12-29T13:13:40;30.75;;;16.38;;
21091;SDS011;10704;42.678;23.288;2023-12-29T13:16:10;28.25;;;14.57;;
21091;SDS011;10704;42.678;23.288;2023-12-29T13:18:39;30.48;;;13.55;;
21091;SDS011;10704;42.678;23.288;2023-12-29T13:21:05;24.45;;;12.52;;
21091;SDS011;10704;42.678;23.288;2023-12-29T13:23:32;21.63;;;11.38;;
21091;SDS011;10704;42.678;23.288;2023-12-29T13:26:02;23.25;;;11.75;;
21091;SDS011;10704;42.678;23.288;2023-12-29T13:28:32;19.27;;;10.68;;
21091;SDS011;10704;42.678;23.288;2023-12-29T13:30:59;17.73;;;10.30;;
21091;SDS011;10704;42.678;23.288;2023-12-29T13:33:29;18.73;;;9.35;;
21091;SDS011;10704;42.678;23.288;2023-12-29T13:36:07;22.58;;;10.85;;
21091;SDS011;10704;42.678;23.288;2023-12-29T13:38:59;17.00;;;9.77;;
21091;SDS011;10704;42.678;23.288;2023-12-29T13:41:34;17.83;;;8.20;;
21091;SDS011;10704;42.678;23.288;2023-12-29T13:44:01;25.45;;;11.25;;
21091;SDS011;10704;42.678;23.288;2023-12-29T13:46:28;18.60;;;9.00;;
21091;SDS011;10704;42.678;23.288;2023-12-29T13:48:56;15.27;;;8.43;;
21091;SDS011;10704;42.678;23.288;2023-12-29T13:51:23;17.65;;;7.80;;
21091;SDS011;10704;42.678;23.288;2023-12-29T13:53:57;24.05;;;9.45;;
21091;SDS011;10704;42.678;23.288;2023-12-29T13:56:24;17.52;;;8.20;;
21091;SDS011;10704;42.678;23.288;2023-12-29T13:58:53;15.70;;;8.73;;
21091;SDS011;10704;42.678;23.288;2023-12-29T14:01:19;15.15;;;7.03;;
21091;SDS011;10704;42.678;23.288;2023-12-29T14:06:31;20.60;;;9.70;;
21091;SDS011;10704;42.678;23.288;2023-12-29T14:09:03;21.40;;;8.70;;
21091;SDS011;10704;42.678;23.288;2023-12-29T14:11:29;31.95;;;12.15;;
21091;SDS011;10704;42.678;23.288;2023-12-29T14:13:56;17.27;;;8.27;;
21091;SDS011;10704;42.678;23.288;2023-12-29T14:16:22;23.92;;;8.82;;
21091;SDS011;10704;42.678;23.288;2023-12-29T14:21:26;24.13;;;8.75;;
21091;SDS011;10704;42.678;23.288;2023-12-29T14:24:05;18.70;;;7.97;;
21091;SDS011;10704;42.678;23.288;2023-12-29T14:26:32;16.63;;;8.18;;
21091;SDS011;10704;42.678;23.288;2023-12-29T14:29:01;24.45;;;9.23;;
21091;SDS011;10704;42.678;23.288;2023-12-29T14:31:31;24.98;;;10.07;;
21091;SDS011;10704;42.678;23.288;2023-12-29T14:34:07;21.00;;;9.63;;
21091;SDS011;10704;42.678;23.288;2023-12-29T14:36:34;23.00;;;10.60;;
21091;SDS011;10704;42.678;23.288;2023-12-29T14:39:02;29.40;;;11.13;;